Latest Weather Observations for Gosford

IDN60801

Issued at 10:33 pm EST Sunday 3 July 2022 (issued every 10 minutes, with the page automatically refreshed every 10 minutes)

About weather observations | Map of weather stations | Latest weather observations for NSW | Other Formats
Station Details ID: 061425 Name: GOSFORD AWS Lat: -33.44 Lon: 151.36 Height: 7.0 m
Data from the previous 72 hours. | See also: Recent months at Gosford
Date/Time
EST
Temp
°C
App
Temp
°C
Dew
Point
°C
Rel
Hum
%
Delta-T
°C
Wind Press
QNH
hPa
Press
MSL
hPa
Rain since
9am
mm
Dir  Spd
km/h
Gust
km/h
Spd
kts
Gust
kts
03/10:30pm 15.8 12.9 15.0 95 0.5 SSE 24 44 13 24 - - 59.2
03/10:00pm 15.6 13.6 15.0 96 0.3 SSE 19 35 10 19 - - 57.2
03/09:30pm 15.4 14.0 14.6 95 0.5 SSE 15 32 8 17 - - 54.6
03/09:06pm 15.6 11.7 14.5 93 0.6 SSE 28 56 15 30 - - 53.6
03/09:00pm 15.6 12.1 14.6 94 0.6 SSE 26 50 14 27 - - 53.6
03/08:30pm 15.1 12.7 14.3 95 0.5 SSE 20 44 11 24 - - 50.8
03/08:00pm 14.8 12.8 13.8 94 0.6 SSE 17 30 9 16 - - 46.8
03/07:30pm 14.7 12.0 13.6 93 0.6 SSE 20 43 11 23 - - 45.4
03/07:00pm 14.9 12.2 13.6 92 0.7 SSE 20 39 11 21 - - 44.4
03/06:30pm 15.1 12.8 14.0 93 0.6 SSE 19 33 10 18 - - 43.0
03/06:00pm 15.2 12.0 14.2 94 0.6 SE 24 43 13 23 - - 41.8
03/05:30pm 15.1 12.2 14.1 94 0.6 SE 22 46 12 25 - - 39.8
03/05:00pm 15.4 13.2 14.3 93 0.6 SE 19 32 10 17 - - 37.6
03/04:30pm 15.2 12.4 14.2 94 0.6 SSE 22 48 12 26 - - 37.0
03/04:00pm 14.8 11.8 13.7 93 0.6 SE 22 43 12 23 - - 34.8
03/03:30pm 15.4 13.1 14.1 92 0.7 SE 19 46 10 25 - - 31.8
03/03:00pm 15.4 13.7 14.6 95 0.5 SE 17 33 9 18 - - 31.0
03/02:30pm 15.7 13.0 14.7 94 0.6 SE 22 41 12 22 - - 27.8
03/02:00pm 15.7 13.6 14.7 94 0.6 SE 19 39 10 21 - - 25.8
03/01:30pm 15.4 13.3 14.6 95 0.5 SE 19 37 10 20 - - 24.2
03/01:00pm 15.3 13.5 14.5 95 0.5 SE 17 32 9 17 - - 23.0
03/12:30pm 15.3 12.5 14.3 94 0.6 SE 22 44 12 24 - - 18.4
03/12:00pm 15.4 13.7 14.8 96 0.3 SE 17 33 9 18 - - 15.2
03/11:30am 15.5 13.8 14.7 95 0.5 SE 17 32 9 17 - - 9.0
03/11:00am 15.1 12.6 14.1 94 0.6 SE 20 37 11 20 - - 8.2
03/10:30am 15.4 12.3 14.4 94 0.6 ESE 24 39 13 21 - - 6.6
03/10:00am 15.3 12.4 14.0 92 0.7 ESE 22 41 12 22 - - 5.8
03/09:30am 15.6 13.4 14.5 93 0.6 ESE 19 35 10 19 - - 4.4
03/09:16am 15.2 10.8 14.2 94 0.6 E 30 56 16 30 - - 4.0
03/09:14am 15.2 11.2 14.1 93 0.6 ESE 28 56 15 30 - - 4.0
03/09:00am 15.6 14.7 14.8 95 0.5 E 13 22 7 12 - - 80.2
03/08:30am 15.1 12.7 14.3 95 0.5 ESE 20 39 11 21 - - 76.0
03/08:00am 15.5 13.2 14.7 95 0.5 ESE 20 37 11 20 - - 70.6
03/07:30am 15.4 12.6 14.4 94 0.6 ESE 22 43 12 23 - - 66.6
03/07:06am 15.7 11.9 14.7 94 0.6 ESE 28 56 15 30 - - 65.0
03/07:00am 15.6 13.3 14.6 94 0.6 ESE 20 43 11 23 - - 64.6
03/06:30am 15.1 12.2 14.1 94 0.6 ESE 22 43 12 23 - - 60.2
03/06:00am 15.3 12.5 14.2 93 0.6 E 22 37 12 20 - - 56.2
03/05:30am 15.6 14.2 14.6 94 0.6 ESE 15 22 8 12 - - 54.8
03/05:00am 15.6 13.9 14.6 94 0.6 ESE 17 32 9 17 - - 53.2
03/04:30am 15.7 13.4 14.6 93 0.6 ESE 20 35 11 19 - - 51.4
03/04:00am 15.4 13.3 14.8 96 0.3 E 19 30 10 16 - - 50.8
03/03:30am 15.6 13.9 14.8 95 0.5 E 17 35 9 19 - - 46.8
03/03:00am 15.0 14.7 14.4 96 0.3 E 9 24 5 13 - - 45.2
03/02:30am 14.5 12.1 13.7 95 0.4 ESE 19 43 10 23 - - 43.2
03/02:00am 14.2 14.1 13.9 98 0.2 WNW 7 13 4 7 - - 43.0
03/01:30am 14.1 13.6 13.8 98 0.2 SW 9 15 5 8 - - 42.0
03/01:00am 13.8 14.2 13.6 99 0.1 WNW 4 7 2 4 - - 40.8
03/12:30am 13.7 14.8 13.5 99 0.1 CALM 0 0 0 0 - - 40.6
03/12:00am 13.6 14.7 13.4 99 0.1 CALM 0 0 0 0 - - 39.2
 
Date/Time
EST
Temp
°C
App
Temp
°C
Dew
Point
°C
Rel
Hum
%
Delta-T
°C
Wind Press
QNH
hPa
Press
MSL
hPa
Rain since
9am
mm
Dir  Spd
km/h
Gust
km/h
Spd
kts
Gust
kts
02/11:30pm 13.7 14.8 13.5 99 0.1 CALM 0 4 0 2 - - 39.0
02/11:00pm 13.9 15.1 13.7 99 0.1 CALM 0 2 0 1 - - 38.6
02/10:30pm 13.7 14.4 13.5 99 0.1 N 2 2 1 1 - - 37.6
02/10:00pm 13.4 14.0 13.2 99 0.1 S 2 4 1 2 - - 37.0
02/09:30pm 13.3 14.3 13.1 99 0.1 CALM 0 0 0 0 - - 36.6
02/09:00pm 13.4 13.6 13.2 99 0.1 NW 4 6 2 3 - - 36.6
02/08:30pm 13.2 13.8 13.0 99 0.1 WNW 2 4 1 2 - - 35.8
02/08:00pm 12.9 13.7 12.6 98 0.2 CALM 0 0 0 0 - - 35.8
02/07:30pm 12.9 13.7 12.6 98 0.2 CALM 0 0 0 0 - - 35.8
02/07:00pm 13.2 14.1 12.9 98 0.2 CALM 0 0 0 0 - - 35.8
02/06:30pm 13.4 14.4 13.1 98 0.2 CALM 0 0 0 0 - - 35.8
02/06:00pm 13.6 14.6 13.3 98 0.2 CALM 0 0 0 0 - - 35.8
02/05:30pm 13.8 14.8 13.3 97 0.3 CALM 0 0 0 0 - - 35.8
02/05:00pm 13.9 14.6 13.4 97 0.3 W 2 4 1 2 - - 35.8
02/04:30pm 14.1 14.5 13.6 97 0.3 W 4 6 2 3 - - 35.8
02/04:00pm 14.2 14.6 13.7 97 0.3 W 4 6 2 3 - - 35.0
02/03:30pm 14.5 14.7 14.2 98 0.2 SSW 6 9 3 5 - - 28.8
02/03:00pm 14.5 15.1 14.2 98 0.2 ESE 4 15 2 8 - - 27.0
02/02:30pm 14.5 15.4 14.0 97 0.3 NW 2 6 1 3 - - 19.6
02/02:00pm 14.5 15.4 14.0 97 0.3 WSW 2 6 1 3 - - 13.8
02/01:30pm 14.1 14.1 13.6 97 0.3 W 6 9 3 5 - - 11.8
02/01:00pm 14.0 14.7 13.5 97 0.3 WNW 2 4 1 2 - - 6.0
02/12:30pm 13.9 14.2 13.3 96 0.3 SW 4 6 2 3 - - 3.0
02/12:00pm 13.7 14.6 12.9 95 0.4 CALM 0 4 0 2 - - 2.0
02/11:30am 13.3 13.3 12.5 95 0.4 W 4 6 2 3 - - 1.2
02/11:00am 13.0 12.5 12.2 95 0.4 WNW 6 9 3 5 - - 0.8
02/10:30am 13.0 12.5 12.2 95 0.4 W 6 7 3 4 - - 0.2
02/10:00am 12.9 13.2 12.1 95 0.4 SW 2 6 1 3 - - 0.2
02/09:30am 12.6 12.0 11.8 95 0.4 WSW 6 9 3 5 - - 0.0
02/09:00am 12.5 12.0 11.9 96 0.3 W 6 7 3 4 - - 5.8
02/08:30am 12.2 11.5 11.4 95 0.4 W 6 7 3 4 - - 5.4
02/08:00am 12.0 12.1 11.4 96 0.3 W 2 6 1 3 - - 5.2
02/07:30am 11.9 12.0 11.4 97 0.3 WNW 2 6 1 3 - - 5.0
02/07:00am 11.9 11.6 11.3 96 0.3 W 4 4 2 2 - - 5.0
02/06:30am 11.9 11.2 11.3 96 0.3 W 6 7 3 4 - - 4.8
02/06:00am 11.9 10.9 11.1 95 0.4 WNW 7 9 4 5 - - 4.8
02/05:30am 11.8 11.0 11.0 95 0.4 W 6 9 3 5 - - 4.6
02/05:00am 11.8 10.8 11.0 95 0.4 W 7 13 4 7 - - 4.6
02/04:30am 11.5 11.4 10.9 96 0.3 WNW 2 4 1 2 - - 4.6
02/04:00am 11.5 11.0 10.9 96 0.3 WNW 4 7 2 4 - - 4.6
02/03:30am 11.6 10.8 11.0 96 0.3 WNW 6 9 3 5 - - 4.4
02/03:00am 11.6 11.2 11.0 96 0.3 W 4 6 2 3 - - 3.8
02/02:30am 11.6 10.7 10.8 95 0.4 W 6 9 3 5 - - 3.8
02/02:00am 11.7 10.8 10.8 94 0.5 W 6 7 3 4 - - 3.4
02/01:30am 11.5 11.0 10.6 94 0.5 WNW 4 6 2 3 - - 3.4
02/01:00am 11.5 11.3 10.6 94 0.5 NW 2 6 1 3 - - 3.4
02/12:30am 11.4 11.2 10.6 95 0.4 WNW 2 6 1 3 - - 3.4
02/12:00am 11.4 10.5 10.6 95 0.4 W 6 9 3 5 - - 3.4
 
Date/Time
EST
Temp
°C
App
Temp
°C
Dew
Point
°C
Rel
Hum
%
Delta-T
°C
Wind Press
QNH
hPa
Press
MSL
hPa
Rain since
9am
mm
Dir  Spd
km/h
Gust
km/h
Spd
kts
Gust
kts
01/11:30pm 11.2 10.6 10.4 95 0.4 W 4 7 2 4 - - 3.4
01/11:00pm 11.3 10.7 10.5 95 0.4 W 4 6 2 3 - - 3.4
01/10:30pm 11.5 10.5 10.9 96 0.3 W 7 9 4 5 - - 3.4
01/10:00pm 11.4 10.9 10.6 95 0.4 WSW 4 6 2 3 - - 3.4
01/09:30pm 11.3 11.1 10.5 95 0.4 WNW 2 6 1 3 - - 3.4
01/09:00pm 11.1 10.5 10.5 96 0.3 NW 4 4 2 2 - - 3.4
01/08:30pm 11.1 10.5 10.3 95 0.4 W 4 6 2 3 - - 3.4
01/08:00pm 11.1 10.1 10.3 95 0.4 W 6 7 3 4 - - 3.4
01/07:30pm 11.1 10.5 10.5 96 0.3 W 4 7 2 4 - - 3.4
01/07:00pm 11.0 10.4 10.4 96 0.3 W 4 6 2 3 - - 3.2
01/06:30pm 11.1 10.1 10.3 95 0.4 WSW 6 7 3 4 - - 2.4
01/06:00pm 11.3 10.9 9.7 90 0.8 W 2 4 1 2 - - 1.4
01/05:30pm 11.5 10.4 9.8 89 0.9 WSW 6 9 3 5 - - 1.2
01/05:00pm 11.6 10.2 9.5 87 1.1 WSW 7 11 4 6 - - 1.2
01/04:30pm 11.7 10.3 9.6 87 1.1 WSW 7 13 4 7 - - 1.2
01/04:00pm 11.7 10.3 9.6 87 1.1 WSW 7 11 4 6 - - 1.2
01/03:30pm 11.8 10.5 9.9 88 1.0 WSW 7 11 4 6 - - 1.2
01/03:00pm 11.7 10.4 9.9 89 0.9 WSW 7 15 4 8 - - 1.2
01/02:30pm 11.8 10.5 9.9 88 1.0 WSW 7 11 4 6 - - 1.0
01/02:00pm 12.2 10.9 9.9 86 1.2 WSW 7 13 4 7 - - 0.8
01/01:30pm 12.2 10.6 10.1 87 1.1 W 9 13 5 7 - - 0.8
01/01:00pm 12.5 10.9 10.2 86 1.2 WSW 9 17 5 9 - - 0.8
01/12:30pm 12.6 10.9 10.0 84 1.3 WSW 9 13 5 7 - - 0.8
01/12:00pm 12.5 11.0 10.4 87 1.1 WSW 9 13 5 7 - - 0.8
01/11:30am 12.5 11.4 10.7 89 0.9 WSW 7 13 4 7 - - 0.6
01/11:00am 12.4 11.3 10.6 89 0.9 WSW 7 13 4 7 - - 0.6
01/10:30am 12.3 11.2 10.5 89 0.9 WSW 7 13 4 7 - - 0.6
01/10:00am 12.2 11.2 10.3 88 1.0 SW 6 9 3 5 - - 0.6
01/09:30am 12.3 10.9 9.7 84 1.3 SW 7 15 4 8 - - 0.4
01/09:00am 12.7 11.2 9.2 79 1.8 WSW 7 13 4 7 - - 0.0
01/08:30am 12.7 11.1 8.8 77 2.0 WSW 7 15 4 8 - - 0.0
01/08:00am 12.6 11.3 9.2 80 1.7 WSW 6 9 3 5 - - 0.0
01/07:30am 12.6 10.7 8.9 78 1.9 SSW 9 17 5 9 - - 0.0
01/07:00am 12.6 11.3 9.8 83 1.4 SSW 7 11 4 6 - - 0.0
01/06:30am 12.7 11.4 10.1 84 1.3 SSW 7 15 4 8 - - 0.0
01/06:00am 12.4 11.4 10.3 87 1.1 WSW 6 9 3 5 - - 0.0
01/05:30am 12.0 10.8 9.7 86 1.2 W 6 7 3 4 - - 0.0
01/05:00am 12.3 10.8 9.1 81 1.6 W 7 11 4 6 - - 0.0
01/04:30am 12.6 10.7 9.1 79 1.8 WSW 9 13 5 7 - - 0.0
01/04:00am 12.3 10.9 8.8 79 1.7 W 6 9 3 5 - - 0.0
01/03:30am 11.2 10.2 8.8 85 1.2 W 4 6 2 3 - - 0.0
01/03:00am 11.4 10.6 8.3 81 1.5 WNW 2 4 1 2 - - 0.0
01/02:30am 11.1 9.3 7.2 77 1.9 W 6 7 3 4 - - 0.0
01/02:00am 11.1 9.7 7.4 78 1.8 W 4 9 2 5 - - 0.0
01/01:30am 11.7 10.0 7.4 75 2.1 WNW 6 7 3 4 - - 0.0
01/01:00am 11.4 10.0 7.3 76 2.0 WNW 4 9 2 5 - - 0.0
01/12:30am 11.6 11.0 7.5 76 2.0 CALM 0 0 0 0 - - 0.0
01/12:00am 11.4 10.1 7.5 77 1.9 W 4 6 2 3 - - 0.0
 
Date/Time
EST
Temp
°C
App
Temp
°C
Dew
Point
°C
Rel
Hum
%
Delta-T
°C
Wind Press
QNH
hPa
Press
MSL
hPa
Rain since
9am
mm
Dir  Spd
km/h
Gust
km/h
Spd
kts
Gust
kts
30/11:30pm 11.0 10.2 8.2 83 1.4 W 2 7 1 4 - - 0.0
30/11:00pm 10.9 9.7 8.1 83 1.4 W 4 6 2 3 - - 0.0

Other formats

Comma delimited format used in spreadsheet applications
http://www.bom.gov.au/fwo/IDN60801/IDN60801.94782.axf

JavaScript Object Notation format (JSON) in row-major order
http://www.bom.gov.au/fwo/IDN60801/IDN60801.94782.json

Data quality

Most of these data are generated automatically and are frequently updated. Quality checks on data are not normally performed. It is possible for incorrect values to appear. Refer to information at About Latest Weather Observations and please check the disclaimer before using these data.